Time;durP1;ratioP1;P1;durP2;ratioP2;P2;SDS_P1;SDS_P2;PMS_P1;PMS_P2;Temp;Humidity;BMP_temperature;BMP_pressure;BME280_temperature;BME280_humidity;BME280_pressure;Samples;Min_cycle;Max_cycle;Signal;HPM_P1;HPM_P2
2022/10/09 00:01:10;;;;;;;0.52;0.52;;;13.50;99.90;;;;;;5057216;28;20027;-80
2022/10/09 00:03:38;;;;;;;47.28;9.60;;;13.50;99.90;;;;;;5069988;28;20042;-77
2022/10/09 00:06:05;;;;;;;0.10;0.10;;;13.50;99.90;;;;;;5062980;28;20036;-76
2022/10/09 00:08:32;;;;;;;0.10;0.10;;;13.50;99.90;;;;;;5051447;28;20446;-79
2022/10/09 00:10:58;;;;;;;0.13;0.13;;;13.40;99.90;;;;;;5050030;28;20029;-76
2022/10/09 00:13:24;;;;;;;0.10;0.10;;;13.50;99.90;;;;;;5050050;28;20047;-77
2022/10/09 00:15:49;;;;;;;0.10;0.10;;;13.60;99.90;;;;;;5051990;28;20033;-78
2022/10/09 00:18:16;;;;;;;0.20;0.20;;;13.60;99.90;;;;;;5055025;28;20021;-79
2022/10/09 00:20:44;;;;;;;0.10;0.10;;;13.70;99.90;;;;;;5054987;28;20104;-77
2022/10/09 00:23:13;;;;;;;0.13;0.13;;;13.70;99.90;;;;;;5053809;28;20028;-76
2022/10/09 00:25:48;;;;;;;0.10;0.10;;;13.60;99.90;;;;;;5053205;28;20123;-76
2022/10/09 00:28:14;;;;;;;0.10;0.10;;;13.60;99.90;;;;;;5054760;28;20115;-77
2022/10/09 00:30:40;;;;;;;0.10;0.10;;;13.70;99.90;;;;;;5054652;28;20392;-77
2022/10/09 00:33:05;;;;;;;0.10;0.10;;;13.70;99.90;;;;;;5054792;28;20050;-80
2022/10/09 00:35:31;;;;;;;0.10;0.10;;;13.70;99.90;;;;;;5054519;28;20021;-77
2022/10/09 00:37:57;;;;;;;0.10;0.10;;;13.40;99.90;;;;;;5054694;28;20291;-76
2022/10/09 00:40:23;;;;;;;0.30;0.30;;;13.30;99.90;;;;;;5054670;28;20392;-76
2022/10/09 00:42:56;;;;;;;0.20;0.20;;;13.10;99.90;;;;;;5053160;28;20550;-77
2022/10/09 00:45:22;;;;;;;0.32;0.32;;;13.00;99.90;;;;;;5036539;28;20392;-76
2022/10/09 00:47:56;;;;;;;0.38;0.38;;;12.90;99.90;;;;;;5054476;28;20021;-76
2022/10/09 00:50:24;;;;;;;0.40;0.40;;;12.80;99.90;;;;;;5053268;28;20044;-78
2022/10/09 00:52:54;;;;;;;0.20;0.20;;;12.70;99.90;;;;;;5053044;28;20021;-79
2022/10/09 00:55:22;;;;;;;0.20;0.20;;;12.60;99.90;;;;;;5052950;28;20021;-80
2022/10/09 00:57:49;;;;;;;0.32;0.32;;;12.70;99.90;;;;;;5054356;28;20049;-77
2022/10/09 01:00:16;;;;;;;1.00;1.00;;;12.60;99.90;;;;;;5036247;28;20041;-75
2022/10/09 01:02:42;;;;;;;0.10;0.10;;;12.70;99.90;;;;;;5052907;28;20581;-76
2022/10/09 01:05:09;;;;;;;0.32;0.32;;;12.60;99.90;;;;;;5052844;28;20078;-76
2022/10/09 01:07:47;;;;;;;0.20;0.20;;;12.40;99.90;;;;;;5052793;28;20024;-77
2022/10/09 01:10:26;;;;;;;1.75;1.15;;;12.40;99.90;;;;;;5054060;28;20025;-78
2022/10/09 01:13:10;;;;;;;0.10;0.10;;;12.40;99.90;;;;;;5052813;28;20017;-76
2022/10/09 01:15:46;;;;;;;4.47;1.17;;;12.20;99.90;;;;;;5053765;28;20422;-77
2022/10/09 01:18:19;;;;;;;0.15;0.15;;;12.10;99.90;;;;;;5052617;28;20031;-76
2022/10/09 01:20:48;;;;;;;0.20;0.20;;;12.10;99.90;;;;;;5054105;28;20025;-76
2022/10/09 01:23:45;;;;;;;0.20;0.20;;;12.20;99.90;;;;;;5053760;28;20045;-76
2022/10/09 01:26:23;;;;;;;0.30;0.30;;;12.20;99.90;;;;;;5053402;28;20032;-76
2022/10/09 01:28:53;;;;;;;0.30;0.30;;;12.20;99.90;;;;;;5052948;28;20051;-79
2022/10/09 01:31:21;;;;;;;0.10;0.10;;;12.00;99.90;;;;;;5052396;28;20031;-79
2022/10/09 01:33:48;;;;;;;0.20;0.20;;;11.80;99.90;;;;;;5053498;28;20499;-77
2022/10/09 01:36:16;;;;;;;0.20;0.20;;;11.90;99.90;;;;;;5053408;28;20027;-77
2022/10/09 01:38:43;;;;;;;0.28;0.28;;;12.00;99.90;;;;;;5053389;28;20040;-76
2022/10/09 01:41:09;;;;;;;0.30;0.30;;;11.90;99.90;;;;;;5053494;28;20028;-77
2022/10/09 01:43:35;;;;;;;0.20;0.20;;;11.80;99.90;;;;;;5053427;28;20021;-77
2022/10/09 01:46:27;;;;;;;0.25;0.25;;;11.80;99.90;;;;;;5051825;28;20106;-77
2022/10/09 01:48:56;;;;;;;0.35;0.35;;;11.70;99.90;;;;;;5052108;28;20100;-78
2022/10/09 01:51:28;;;;;;;3.42;1.70;;;11.60;99.90;;;;;;5053153;28;20032;-76
2022/10/09 01:53:57;;;;;;;0.13;0.13;;;11.70;99.90;;;;;;5051957;28;20021;-76
2022/10/09 01:56:25;;;;;;;0.10;0.10;;;11.80;99.90;;;;;;5052981;28;20469;-76
2022/10/09 01:58:55;;;;;;;0.13;0.13;;;11.70;99.90;;;;;;5053178;28;20086;-76
2022/10/09 02:01:35;;;;;;;0.10;0.10;;;11.70;99.90;;;;;;5051679;28;20021;-79
2022/10/09 02:04:06;;;;;;;0.30;0.30;;;11.60;99.90;;;;;;5051669;28;20029;-76
2022/10/09 02:06:33;;;;;;;2.07;0.80;;;11.50;99.90;;;;;;5051639;28;20029;-77
2022/10/09 02:09:00;;;;;;;0.20;0.20;;;11.50;99.90;;;;;;5051597;28;20547;-77
2022/10/09 02:11:30;;;;;;;0.20;0.20;;;11.50;99.90;;;;;;5052930;28;20492;-75
2022/10/09 02:13:57;;;;;;;0.38;0.38;;;11.50;99.90;;;;;;5052776;28;20427;-77
2022/10/09 02:16:38;;;;;;;7.35;5.85;;;11.50;99.90;;;;;;5052588;28;20082;-76
2022/10/09 02:19:15;;;;;;;0.10;0.10;;;11.60;99.90;;;;;;5051699;28;20037;-77
2022/10/09 02:21:47;;;;;;;0.20;0.20;;;11.60;99.90;;;;;;5034817;28;20078;-76
2022/10/09 02:24:20;;;;;;;0.20;0.20;;;11.60;99.90;;;;;;5052549;28;20036;-76
2022/10/09 02:26:46;;;;;;;0.20;0.20;;;11.80;99.90;;;;;;5051052;28;20032;-77
2022/10/09 02:29:14;;;;;;;0.10;0.10;;;11.90;99.90;;;;;;5051228;28;20507;-77
2022/10/09 02:31:41;;;;;;;0.20;0.20;;;11.80;99.90;;;;;;5052435;28;20395;-79
2022/10/09 02:34:11;;;;;;;0.32;0.32;;;11.80;99.90;;;;;;5052445;28;20468;-77
2022/10/09 02:36:37;;;;;;;0.15;0.15;;;11.70;99.90;;;;;;5052348;28;20047;-77
2022/10/09 02:39:04;;;;;;;0.38;0.38;;;11.80;99.90;;;;;;5050572;28;20080;-77
2022/10/09 02:41:30;;;;;;;0.13;0.13;;;11.70;99.90;;;;;;5051248;28;20440;-79
2022/10/09 02:43:56;;;;;;;0.38;0.38;;;11.80;99.90;;;;;;5050987;28;20029;-76
2022/10/09 02:46:22;;;;;;;0.20;0.20;;;11.80;99.90;;;;;;5050916;28;20029;-76
2022/10/09 02:48:48;;;;;;;0.20;0.20;;;11.70;99.90;;;;;;5051062;28;20025;-76
2022/10/09 02:51:14;;;;;;;0.73;0.73;;;11.80;99.90;;;;;;5051007;28;20445;-76
2022/10/09 02:53:40;;;;;;;0.38;0.38;;;11.70;99.90;;;;;;5052246;28;20053;-76
2022/10/09 02:56:06;;;;;;;0.20;0.20;;;11.70;99.90;;;;;;5052211;28;20048;-76
2022/10/09 02:58:33;;;;;;;0.20;0.20;;;11.70;99.90;;;;;;5050926;28;20481;-76
2022/10/09 03:01:00;;;;;;;0.10;0.10;;;11.50;99.90;;;;;;5052023;28;20052;-76
2022/10/09 03:03:26;;;;;;;0.20;0.20;;;11.60;99.90;;;;;;5050774;28;20032;-77
2022/10/09 03:06:09;;;;;;;0.20;0.20;;;11.60;99.90;;;;;;5050512;28;20033;-77
2022/10/09 03:08:38;;;;;;;0.20;0.20;;;11.70;99.90;;;;;;5052020;28;20393;-77
2022/10/09 03:11:04;;;;;;;0.10;0.10;;;11.70;99.90;;;;;;5051988;28;20059;-76
2022/10/09 03:13:31;;;;;;;0.20;0.20;;;11.60;99.90;;;;;;5051881;28;20021;-76
2022/10/09 03:16:07;;;;;;;0.10;0.10;;;11.60;99.90;;;;;;5051748;28;20473;-76
2022/10/09 03:18:34;;;;;;;0.28;0.28;;;11.60;99.90;;;;;;5034066;28;20025;-77
2022/10/09 03:21:00;;;;;;;0.20;0.20;;;11.60;99.90;;;;;;5050557;28;20025;-76
2022/10/09 03:23:26;;;;;;;0.68;0.68;;;11.60;99.90;;;;;;5051822;28;20044;-77
2022/10/09 03:25:59;;;;;;;0.20;0.20;;;11.60;99.90;;;;;;5051570;28;20029;-77
2022/10/09 03:28:25;;;;;;;0.63;0.63;;;11.50;99.90;;;;;;5050403;28;20563;-77
2022/10/09 03:30:51;;;;;;;0.35;0.35;;;11.60;99.90;;;;;;5051853;28;20060;-76
2022/10/09 03:33:17;;;;;;;0.22;0.22;;;11.50;99.90;;;;;;5051841;28;20063;-80
2022/10/09 03:35:45;;;;;;;0.10;0.10;;;11.40;99.90;;;;;;5033841;28;20056;-76
2022/10/09 03:38:10;;;;;;;0.20;0.20;;;11.30;99.90;;;;;;5050589;28;20455;-77
2022/10/09 03:40:36;;;;;;;0.32;0.32;;;11.40;99.90;;;;;;5051729;28;20059;-77
2022/10/09 03:43:02;;;;;;;0.20;0.20;;;11.30;99.90;;;;;;5051651;28;20025;-77
2022/10/09 03:45:28;;;;;;;0.35;0.35;;;11.30;99.90;;;;;;5051348;28;20033;-77
2022/10/09 03:47:53;;;;;;;0.10;0.10;;;11.40;99.90;;;;;;5051594;28;20025;-80
2022/10/09 03:50:19;;;;;;;0.10;0.10;;;11.50;99.90;;;;;;5057171;28;20033;-76
2022/10/09 03:52:45;;;;;;;0.20;0.20;;;11.60;99.90;;;;;;5059957;28;20017;-77
2022/10/09 03:55:11;;;;;;;0.73;0.73;;;11.60;99.90;;;;;;5073867;28;20028;-76
2022/10/09 03:57:37;;;;;;;0.20;0.20;;;11.60;99.90;;;;;;5066048;28;20071;-76
2022/10/09 04:00:04;;;;;;;0.20;0.20;;;11.60;99.90;;;;;;5055287;28;20036;-76
2022/10/09 04:02:31;;;;;;;0.20;0.20;;;11.60;99.90;;;;;;5053982;28;20056;-76
2022/10/09 04:04:57;;;;;;;0.20;0.20;;;11.70;99.90;;;;;;5053725;28;20446;-77
2022/10/09 04:07:23;;;;;;;0.20;0.20;;;11.70;99.90;;;;;;5074724;28;20111;-76
2022/10/09 04:09:49;;;;;;;0.13;0.13;;;11.70;99.90;;;;;;5073780;28;20069;-76
2022/10/09 04:12:14;;;;;;;0.38;0.32;;;11.80;99.90;;;;;;5075232;28;20107;-76
2022/10/09 04:14:40;;;;;;;0.20;0.20;;;11.70;99.90;;;;;;5073765;28;20027;-78
2022/10/09 04:17:06;;;;;;;1.55;0.68;;;11.60;99.90;;;;;;5073840;28;20033;-79
2022/10/09 04:19:32;;;;;;;0.47;0.35;;;11.60;99.90;;;;;;5075012;28;20488;-76
2022/10/09 04:21:58;;;;;;;0.17;0.17;;;11.50;99.90;;;;;;5075020;28;20028;-76
2022/10/09 04:24:24;;;;;;;0.45;0.45;;;11.50;99.90;;;;;;5074967;28;20114;-76
2022/10/09 04:26:49;;;;;;;0.93;0.65;;;11.50;99.90;;;;;;5074879;28;20115;-77
2022/10/09 04:29:15;;;;;;;0.10;0.10;;;11.40;99.90;;;;;;5073483;28;20058;-76
2022/10/09 04:31:41;;;;;;;0.20;0.20;;;11.30;99.90;;;;;;5075247;28;20410;-76
2022/10/09 04:34:06;;;;;;;0.13;0.13;;;11.40;99.90;;;;;;5074734;28;20047;-80
2022/10/09 04:36:32;;;;;;;1.08;1.08;;;11.40;99.90;;;;;;5069574;28;20020;-76
2022/10/09 04:38:58;;;;;;;0.43;0.43;;;11.50;99.90;;;;;;5064458;28;20468;-76
2022/10/09 04:41:24;;;;;;;0.28;0.28;;;11.40;99.90;;;;;;5065048;28;20021;-76
2022/10/09 04:43:54;;;;;;;0.55;0.55;;;11.40;99.90;;;;;;5053172;28;20041;-77
2022/10/09 04:46:20;;;;;;;0.20;0.20;;;11.30;99.90;;;;;;5067426;28;20507;-78
2022/10/09 04:48:47;;;;;;;0.10;0.10;;;11.20;99.90;;;;;;5071326;28;20027;-76
2022/10/09 04:51:13;;;;;;;1.08;0.88;;;11.30;99.90;;;;;;5073605;28;20479;-77
2022/10/09 04:53:40;;;;;;;0.35;0.35;;;11.30;99.90;;;;;;5074214;28;20069;-77
2022/10/09 04:56:12;;;;;;;1.65;0.55;;;11.40;99.90;;;;;;5072820;28;20028;-77
2022/10/09 04:58:41;;;;;;;0.20;0.20;;;11.20;99.90;;;;;;5073248;28;20028;-78
2022/10/09 05:01:10;;;;;;;0.70;0.70;;;11.20;99.90;;;;;;5074502;28;20032;-75
2022/10/09 05:03:35;;;;;;;0.10;0.10;;;11.10;99.90;;;;;;5068308;28;20033;-80
2022/10/09 05:06:03;;;;;;;0.10;0.10;;;11.10;99.90;;;;;;5054865;28;20035;-79
2022/10/09 05:08:30;;;;;;;0.20;0.20;;;11.10;99.90;;;;;;5074028;28;20046;-76
2022/10/09 05:11:00;;;;;;;1.30;0.73;;;11.00;99.90;;;;;;5064922;28;20377;-77
2022/10/09 05:13:31;;;;;;;0.15;0.15;;;11.00;99.90;;;;;;5054104;28;20021;-76
2022/10/09 05:16:01;;;;;;;0.10;0.10;;;10.90;99.90;;;;;;5052707;28;20029;-76
2022/10/09 05:18:27;;;;;;;0.10;0.10;;;10.90;99.90;;;;;;5052727;28;20496;-76
2022/10/09 05:20:53;;;;;;;0.20;0.20;;;11.00;99.90;;;;;;5036030;28;20082;-76
2022/10/09 05:23:19;;;;;;;0.43;0.43;;;11.10;99.90;;;;;;5052270;28;20037;-76
2022/10/09 05:25:54;;;;;;;0.13;0.13;;;11.10;99.90;;;;;;5052122;28;20028;-76
2022/10/09 05:28:20;;;;;;;0.20;0.20;;;11.30;99.90;;;;;;5035666;28;20049;-79
2022/10/09 05:30:45;;;;;;;0.20;0.20;;;11.20;99.90;;;;;;5053712;28;20143;-76
2022/10/09 05:33:11;;;;;;;0.52;0.52;;;11.20;99.90;;;;;;5052241;28;20025;-76
2022/10/09 05:35:37;;;;;;;0.10;0.10;;;11.10;99.90;;;;;;5052170;28;20082;-76
2022/10/09 05:38:03;;;;;;;1.20;0.57;;;11.10;99.90;;;;;;5053735;28;20029;-76
2022/10/09 05:40:28;;;;;;;0.10;0.10;;;11.10;99.90;;;;;;5052335;28;20500;-76
2022/10/09 05:42:54;;;;;;;0.20;0.20;;;11.00;99.90;;;;;;5052263;28;20388;-78
2022/10/09 05:45:20;;;;;;;0.10;0.10;;;11.00;99.90;;;;;;5053114;28;20025;-76
2022/10/09 05:47:46;;;;;;;0.30;0.30;;;11.00;99.90;;;;;;5052041;28;20032;-76
2022/10/09 05:50:11;;;;;;;0.20;0.20;;;11.10;99.90;;;;;;5053391;28;20092;-77
2022/10/09 05:52:38;;;;;;;0.17;0.17;;;11.20;99.90;;;;;;5053375;28;20013;-76
2022/10/09 05:55:06;;;;;;;0.10;0.10;;;11.10;99.90;;;;;;5053390;28;20120;-78
2022/10/09 05:57:32;;;;;;;0.32;0.32;;;11.00;99.90;;;;;;5052063;28;20104;-76
2022/10/09 05:59:57;;;;;;;0.47;0.47;;;10.80;99.90;;;;;;5051977;28;20025;-76
2022/10/09 06:02:23;;;;;;;0.20;0.20;;;10.80;99.90;;;;;;5051774;28;20029;-77
2022/10/09 06:04:49;;;;;;;0.47;0.45;;;10.90;99.90;;;;;;5052913;28;20083;-77
2022/10/09 06:07:15;;;;;;;0.15;0.15;;;10.80;99.90;;;;;;5052936;28;20100;-77
2022/10/09 06:09:40;;;;;;;0.10;0.10;;;10.90;99.90;;;;;;5052913;28;20021;-77
2022/10/09 06:12:06;;;;;;;0.17;0.17;;;10.90;99.90;;;;;;5035019;28;20033;-76
2022/10/09 06:14:32;;;;;;;0.10;0.10;;;11.00;99.90;;;;;;5051461;28;20028;-76
2022/10/09 06:16:58;;;;;;;0.70;0.60;;;10.90;99.90;;;;;;5051329;28;20033;-76
2022/10/09 06:19:24;;;;;;;5.15;0.88;;;10.70;99.90;;;;;;5052795;28;20028;-76
2022/10/09 06:21:50;;;;;;;0.20;0.20;;;10.50;99.90;;;;;;5051463;28;20024;-76
2022/10/09 06:24:19;;;;;;;0.43;0.43;;;10.50;99.90;;;;;;5052525;28;20496;-76
2022/10/09 06:26:45;;;;;;;0.98;0.88;;;10.50;99.90;;;;;;5052324;28;20021;-77
2022/10/09 06:29:11;;;;;;;0.20;0.20;;;10.50;99.90;;;;;;5052426;28;20492;-79
2022/10/09 06:31:37;;;;;;;0.30;0.30;;;10.40;99.90;;;;;;5034567;28;20029;-77
2022/10/09 06:34:03;;;;;;;1.20;1.13;;;10.50;99.90;;;;;;5051126;28;20076;-77
2022/10/09 06:36:32;;;;;;;0.10;0.10;;;10.50;99.90;;;;;;5050921;28;20037;-79
2022/10/09 06:38:59;;;;;;;1.77;1.00;;;10.50;99.90;;;;;;5052474;28;20047;-76
2022/10/09 06:41:26;;;;;;;0.70;0.68;;;10.50;99.90;;;;;;5052403;28;20203;-76
2022/10/09 06:43:55;;;;;;;0.47;0.47;;;10.50;99.90;;;;;;5050993;28;20388;-76
2022/10/09 06:46:24;;;;;;;0.38;0.38;;;10.40;99.90;;;;;;5052070;28;20029;-76
2022/10/09 06:48:49;;;;;;;1.15;1.15;;;10.50;99.90;;;;;;5052454;28;20021;-77
2022/10/09 06:51:18;;;;;;;0.55;0.55;;;10.70;99.90;;;;;;5034472;28;20114;-79
2022/10/09 06:53:47;;;;;;;1.67;1.30;;;10.70;99.90;;;;;;5052112;28;20021;-76
2022/10/09 06:56:14;;;;;;;0.20;0.20;;;10.70;99.90;;;;;;5051860;28;20036;-76
2022/10/09 06:58:40;;;;;;;0.63;0.63;;;10.70;99.90;;;;;;5050974;28;20055;-79
2022/10/09 07:01:07;;;;;;;0.70;0.70;;;10.70;99.90;;;;;;5052103;28;20469;-76
2022/10/09 07:03:34;;;;;;;0.10;0.10;;;10.80;99.90;;;;;;5050581;28;20021;-76
2022/10/09 07:06:10;;;;;;;0.10;0.10;;;10.80;99.90;;;;;;5051698;28;20079;-79
2022/10/09 07:08:37;;;;;;;4.68;1.13;;;10.90;99.90;;;;;;5050500;28;20032;-76
2022/10/09 07:11:09;;;;;;;0.20;0.20;;;10.90;99.90;;;;;;5050802;28;20032;-76
2022/10/09 07:13:34;;;;;;;;;;;10.90;99.90;;;;;;5052295;28;20035;-77
2022/10/09 07:16:00;;;;;;;0.10;0.10;;;10.70;99.90;;;;;;5051730;28;19904;-77
2022/10/09 07:18:26;;;;;;;0.20;0.20;;;10.80;99.90;;;;;;5034162;28;20395;-79
2022/10/09 07:20:52;;;;;;;0.13;0.13;;;10.80;99.90;;;;;;5051853;28;20043;-76
2022/10/09 07:23:17;;;;;;;1.23;1.23;;;10.80;99.90;;;;;;5050435;28;20043;-76
2022/10/09 07:25:43;;;;;;;10.23;1.48;;;10.80;99.90;;;;;;5051396;28;20079;-76
2022/10/09 07:28:09;;;;;;;0.98;0.88;;;10.80;99.90;;;;;;5056396;28;20025;-76
2022/10/09 07:30:38;;;;;;;0.10;0.10;;;10.90;99.90;;;;;;5055853;28;20024;-76
2022/10/09 07:33:03;;;;;;;0.20;0.20;;;11.10;99.90;;;;;;5054593;28;20361;-79
2022/10/09 07:35:29;;;;;;;0.20;0.20;;;11.10;99.90;;;;;;5055596;28;20071;-76
2022/10/09 07:37:55;;;;;;;0.15;0.15;;;11.10;99.90;;;;;;5055769;28;20028;-76
2022/10/09 07:40:21;;;;;;;2.55;1.30;;;11.00;99.90;;;;;;5055547;28;20485;-77
2022/10/09 07:42:46;;;;;;;0.47;0.47;;;10.90;99.90;;;;;;5055665;28;20451;-79
2022/10/09 07:45:12;;;;;;;0.35;0.35;;;10.90;99.90;;;;;;5055461;28;20029;-76
2022/10/09 07:47:38;;;;;;;0.52;0.52;;;10.90;99.90;;;;;;5054164;28;20515;-76
2022/10/09 07:50:04;;;;;;;0.20;0.20;;;10.80;99.90;;;;;;5055632;28;20472;-76
2022/10/09 07:52:30;;;;;;;0.93;0.93;;;10.80;99.90;;;;;;5055472;28;20021;-76
2022/10/09 07:54:56;;;;;;;2.00;1.13;;;10.70;99.90;;;;;;5053888;28;20028;-76
2022/10/09 07:57:21;;;;;;;0.43;0.43;;;10.70;99.90;;;;;;5037530;28;20048;-76
2022/10/09 07:59:47;;;;;;;0.25;0.25;;;10.60;99.90;;;;;;5054173;28;20170;-76
2022/10/09 08:02:13;;;;;;;0.38;0.38;;;10.70;99.90;;;;;;5053933;28;20033;-78
2022/10/09 08:04:39;;;;;;;0.75;0.75;;;10.70;99.90;;;;;;5053956;28;20033;-79
2022/10/09 08:07:05;;;;;;;1.88;1.58;;;10.60;99.90;;;;;;5055019;28;20498;-77
2022/10/09 08:09:31;;;;;;;0.57;0.25;;;10.70;99.90;;;;;;5055008;28;20017;-78
2022/10/09 08:11:57;;;;;;;0.30;0.30;;;10.70;99.90;;;;;;5053898;28;20025;-79
2022/10/09 08:14:23;;;;;;;2.80;1.80;;;10.80;99.90;;;;;;5053909;28;20021;-76
2022/10/09 08:16:48;;;;;;;1.10;0.85;;;10.90;99.90;;;;;;5054958;28;20037;-76
2022/10/09 08:19:14;;;;;;;1.38;0.38;;;10.80;99.90;;;;;;5053530;28;20025;-76
2022/10/09 08:21:40;;;;;;;0.47;0.47;;;10.80;99.90;;;;;;5054891;28;20040;-76
2022/10/09 08:24:06;;;;;;;0.10;0.10;;;10.70;99.90;;;;;;5053459;28;20108;-77
2022/10/09 08:26:32;;;;;;;0.30;0.30;;;10.90;99.90;;;;;;5054571;28;20025;-77
2022/10/09 08:29:00;;;;;;;4.80;1.05;;;10.90;99.90;;;;;;5053774;28;20032;-79
2022/10/09 08:31:27;;;;;;;0.80;0.50;;;10.90;99.90;;;;;;5053587;28;20025;-77
2022/10/09 08:33:54;;;;;;;2.70;2.50;;;10.80;99.90;;;;;;5054743;28;20377;-76
2022/10/09 08:36:21;;;;;;;0.10;0.10;;;10.90;99.90;;;;;;5053284;28;20488;-77
2022/10/09 08:38:47;;;;;;;0.10;0.10;;;10.90;99.90;;;;;;5036749;28;20028;-76
2022/10/09 08:41:31;;;;;;;1.17;1.10;;;10.90;99.90;;;;;;5054676;28;20369;-76
2022/10/09 08:44:04;;;;;;;0.30;0.30;;;10.90;99.90;;;;;;5054473;28;20025;-76
2022/10/09 08:46:34;;;;;;;0.10;0.10;;;10.90;99.90;;;;;;5052963;28;20488;-78
2022/10/09 08:49:02;;;;;;;0.63;0.63;;;10.80;99.90;;;;;;5053272;28;20035;-76
2022/10/09 08:51:34;;;;;;;0.47;0.47;;;10.90;99.90;;;;;;5053254;28;20031;-78
2022/10/09 08:54:02;;;;;;;1.20;0.82;;;11.00;99.90;;;;;;5054790;28;20027;-77
2022/10/09 08:56:29;;;;;;;0.10;0.10;;;10.90;99.90;;;;;;5052969;28;20040;-77
2022/10/09 08:58:55;;;;;;;4.95;2.17;;;10.80;99.90;;;;;;5053079;28;20091;-77
2022/10/09 09:01:28;;;;;;;0.10;0.10;;;10.90;99.90;;;;;;5054413;28;20556;-77
2022/10/09 09:04:19;;;;;;;1.65;1.55;;;10.90;99.90;;;;;;5053105;28;20036;-77
2022/10/09 09:07:05;;;;;;;0.10;0.10;;;10.80;99.90;;;;;;5052764;28;20050;-76
2022/10/09 09:09:49;;;;;;;0.68;0.68;;;10.90;99.90;;;;;;5052785;28;20031;-76
2022/10/09 09:12:43;;;;;;;1.55;1.45;;;10.90;99.90;;;;;;5052731;28;20021;-77
2022/10/09 09:15:47;;;;;;;0.10;0.10;;;10.90;99.90;;;;;;5052566;28;20023;-77
2022/10/09 09:18:32;;;;;;;1.60;1.50;;;10.90;99.90;;;;;;5052741;28;20025;-78
2022/10/09 09:21:10;;;;;;;0.57;0.57;;;11.00;99.90;;;;;;5052617;28;20400;-77
2022/10/09 09:23:41;;;;;;;3.60;0.47;;;10.80;99.90;;;;;;5053806;28;20473;-77
2022/10/09 09:26:15;;;;;;;0.00;0.00;;;10.90;99.90;;;;;;5053551;28;20021;-78
2022/10/09 09:28:42;;;;;;;2.53;2.35;;;11.10;99.90;;;;;;5053545;28;20409;-78
2022/10/09 09:31:29;;;;;;;0.00;0.00;;;11.20;99.90;;;;;;5053460;28;20021;-77
2022/10/09 09:34:05;;;;;;;0.10;0.10;;;11.30;99.90;;;;;;5035606;28;20025;-77
2022/10/09 09:36:37;;;;;;;0.13;0.13;;;11.30;99.90;;;;;;5035435;28;20102;-77
2022/10/09 09:39:03;;;;;;;0.40;0.40;;;11.40;99.90;;;;;;5052441;28;20419;-77
2022/10/09 09:41:29;;;;;;;0.30;0.30;;;11.40;99.90;;;;;;5052179;28;20036;-79
2022/10/09 09:43:55;;;;;;;1.30;1.10;;;11.30;99.90;;;;;;5053396;28;20503;-79
2022/10/09 09:46:24;;;;;;;1.08;0.77;;;11.20;99.90;;;;;;5051812;28;20443;-77
2022/10/09 09:48:50;;;;;;;5.35;3.13;;;11.20;99.90;;;;;;5052867;28;20370;-77
2022/10/09 09:51:25;;;;;;;0.45;0.45;;;11.30;99.90;;;;;;5051914;28;20083;-77
2022/10/09 09:54:00;;;;;;;0.93;0.90;;;11.30;99.90;;;;;;5053144;28;20040;-76
2022/10/09 09:56:57;;;;;;;1.88;1.05;;;11.30;99.90;;;;;;5053171;28;20025;-78
2022/10/09 09:59:36;;;;;;;0.88;0.82;;;11.30;99.90;;;;;;5039834;28;20500;-77
2022/10/09 10:02:10;;;;;;;2.83;1.65;;;11.30;99.90;;;;;;5051815;28;20392;-77
2022/10/09 10:04:35;;;;;;;0.45;0.45;;;11.30;99.90;;;;;;5051691;28;20514;-78
2022/10/09 10:07:01;;;;;;;1.42;1.33;;;11.30;99.90;;;;;;5051466;28;20107;-77
2022/10/09 10:09:27;;;;;;;7.07;2.10;;;11.20;99.90;;;;;;5052902;28;20424;-77
2022/10/09 10:12:00;;;;;;;2.35;1.25;;;11.20;99.90;;;;;;5051682;28;20024;-76
2022/10/09 10:14:27;;;;;;;0.10;0.10;;;11.30;99.90;;;;;;5051532;28;20049;-79
2022/10/09 10:16:55;;;;;;;5.55;3.22;;;11.20;99.90;;;;;;5052473;28;20098;-76
2022/10/09 10:19:29;;;;;;;3.88;1.98;;;11.20;99.90;;;;;;5051835;28;20043;-77
2022/10/09 10:21:59;;;;;;;0.68;0.68;;;11.20;99.90;;;;;;5052864;28;20500;-77
2022/10/09 10:24:40;;;;;;;2.90;0.90;;;11.30;99.90;;;;;;5052590;28;20032;-77
2022/10/09 10:27:26;;;;;;;0.30;0.30;;;11.30;99.90;;;;;;5052574;28;20033;-77
2022/10/09 10:29:57;;;;;;;3.10;1.70;;;11.40;99.90;;;;;;5051281;28;20053;-77
2022/10/09 10:32:31;;;;;;;6.43;3.65;;;11.30;99.90;;;;;;5052536;28;20012;-77
2022/10/09 10:35:08;;;;;;;4.30;0.98;;;11.30;99.90;;;;;;5034378;28;20074;-78
2022/10/09 10:37:40;;;;;;;0.25;0.25;;;11.40;99.90;;;;;;5051057;28;20056;-80
2022/10/09 10:40:36;;;;;;;0.43;0.43;;;11.60;99.90;;;;;;5051061;28;20551;-77
2022/10/09 10:43:08;;;;;;;1.95;1.60;;;11.60;99.90;;;;;;5052297;28;20025;-76
2022/10/09 10:45:51;;;;;;;4.43;2.75;;;11.70;99.90;;;;;;5050768;28;20055;-77
2022/10/09 10:48:41;;;;;;;1.15;1.10;;;11.70;99.90;;;;;;5050924;28;20086;-77
2022/10/09 10:51:30;;;;;;;2.80;2.08;;;11.70;99.90;;;;;;5045721;28;20079;-77
2022/10/09 10:54:24;;;;;;;2.30;0.80;;;11.70;99.90;;;;;;5051183;28;20288;-76
2022/10/09 10:57:02;;;;;;;0.95;0.95;;;11.70;99.90;;;;;;5051883;28;20397;-77
2022/10/09 11:00:05;;;;;;;2.95;1.05;;;11.70;99.90;;;;;;5033992;28;20108;-77
2022/10/09 11:03:01;;;;;;;0.47;0.30;;;11.70;99.90;;;;;;5039024;28;20032;-79
2022/10/09 11:05:46;;;;;;;4.60;2.05;;;11.80;99.90;;;;;;5031600;28;20033;-78
2022/10/09 11:08:49;;;;;;;1.17;1.15;;;11.70;99.90;;;;;;5050760;28;20021;-77
2022/10/09 11:11:36;;;;;;;0.30;0.30;;;11.70;99.90;;;;;;5050520;28;20028;-78
2022/10/09 11:14:21;;;;;;;0.45;0.43;;;11.70;99.90;;;;;;5051742;28;20032;-77
2022/10/09 11:16:58;;;;;;;3.78;1.90;;;11.70;99.90;;;;;;5033676;28;20032;-77
2022/10/09 11:20:10;;;;;;;0.10;0.10;;;11.90;99.90;;;;;;5050513;28;20025;-77
2022/10/09 11:22:54;;;;;;;3.17;1.70;;;12.00;99.90;;;;;;5050548;28;20030;-76
2022/10/09 11:25:29;;;;;;;0.10;0.10;;;11.90;99.90;;;;;;5051552;28;20071;-78
2022/10/09 11:28:26;;;;;;;7.10;1.70;;;11.90;99.90;;;;;;5050239;28;20025;-80
2022/10/09 11:31:13;;;;;;;0.75;0.75;;;11.90;99.90;;;;;;5050760;28;20152;-78
2022/10/09 11:33:46;;;;;;;0.28;0.28;;;11.90;99.90;;;;;;5051679;28;20051;-76
2022/10/09 11:36:33;;;;;;;4.03;2.55;;;11.90;99.90;;;;;;5051502;28;20469;-77
2022/10/09 11:39:02;;;;;;;2.22;1.05;;;11.90;99.90;;;;;;5051609;28;20029;-76
2022/10/09 11:41:29;;;;;;;1.55;0.63;;;11.90;99.90;;;;;;5051504;28;20052;-77
2022/10/09 11:44:16;;;;;;;0.50;0.50;;;11.90;99.90;;;;;;5050195;28;20485;-80
2022/10/09 11:47:02;;;;;;;1.05;0.80;;;12.00;99.90;;;;;;5051302;28;20025;-78
2022/10/09 11:49:46;;;;;;;0.13;0.13;;;12.10;99.90;;;;;;5050306;28;20029;-79
2022/10/09 11:52:29;;;;;;;3.22;0.73;;;12.20;99.90;;;;;;5051625;28;20377;-77
2022/10/09 11:54:55;;;;;;;0.65;0.63;;;12.30;99.90;;;;;;5050064;28;20033;-77
2022/10/09 11:57:29;;;;;;;3.00;2.53;;;12.30;99.90;;;;;;5051482;28;20028;-77
2022/10/09 12:00:06;;;;;;;4.63;2.42;;;12.30;99.90;;;;;;5051911;28;20461;-77
2022/10/09 12:02:32;;;;;;;0.30;0.30;;;12.40;99.90;;;;;;5051221;28;20029;-80
2022/10/09 12:04:58;;;;;;;3.30;2.40;;;12.30;99.90;;;;;;5049818;28;20025;-80
2022/10/09 12:07:33;;;;;;;1.10;1.00;;;12.30;99.90;;;;;;5051332;28;20539;-77
2022/10/09 12:10:04;;;;;;;0.10;0.10;;;12.40;99.90;;;;;;5051270;28;20021;-77
2022/10/09 12:12:30;;;;;;;0.28;0.28;;;12.50;99.90;;;;;;5053479;28;20031;-80
2022/10/09 12:14:57;;;;;;;0.75;0.65;;;12.60;99.90;;;;;;5053378;28;20029;-80
2022/10/09 12:17:23;;;;;;;2.28;2.08;;;12.60;99.90;;;;;;5053445;28;20029;-77
2022/10/09 12:20:13;;;;;;;1.00;1.00;;;12.50;99.90;;;;;;5055006;28;20031;-77
2022/10/09 12:22:43;;;;;;;1.65;0.90;;;12.50;99.90;;;;;;5053261;28;20048;-77
2022/10/09 12:25:39;;;;;;;0.10;0.10;;;12.50;99.90;;;;;;5036573;28;20100;-78
2022/10/09 12:28:11;;;;;;;0.10;0.10;;;12.70;99.90;;;;;;5054766;28;20079;-78
2022/10/09 12:30:40;;;;;;;0.35;0.35;;;12.70;99.90;;;;;;5054774;28;20116;-77
2022/10/09 12:33:33;;;;;;;0.10;0.10;;;12.80;99.90;;;;;;5053329;28;20099;-77
2022/10/09 12:36:11;;;;;;;1.85;1.75;;;12.80;99.90;;;;;;5054465;28;20052;-77
2022/10/09 12:38:37;;;;;;;1.95;0.95;;;12.80;99.90;;;;;;5053450;28;20104;-81
2022/10/09 12:41:07;;;;;;;1.40;1.30;;;12.70;99.90;;;;;;5053377;28;20053;-77
2022/10/09 12:43:33;;;;;;;2.53;1.55;;;12.70;99.90;;;;;;5036582;28;20035;-77
2022/10/09 12:46:00;;;;;;;0.65;0.65;;;12.70;99.90;;;;;;5036316;28;20102;-77
2022/10/09 12:48:27;;;;;;;2.72;1.75;;;12.70;99.90;;;;;;5054384;28;20017;-77
2022/10/09 12:50:54;;;;;;;0.10;0.10;;;12.60;99.90;;;;;;5053057;28;20031;-77
2022/10/09 12:53:23;;;;;;;0.10;0.10;;;12.60;99.90;;;;;;5054323;28;20035;-77
2022/10/09 12:55:57;;;;;;;0.85;0.60;;;12.60;99.90;;;;;;5054213;28;20032;-77
2022/10/09 12:58:34;;;;;;;6.25;3.53;;;12.70;99.90;;;;;;5036397;28;20130;-77
2022/10/09 13:01:05;;;;;;;0.30;0.30;;;12.70;99.90;;;;;;5054250;28;20017;-76
2022/10/09 13:03:37;;;;;;;0.10;0.10;;;12.70;99.90;;;;;;5054087;28;20412;-76
2022/10/09 13:06:06;;;;;;;;;;;12.80;99.90;;;;;;5053063;28;20473;-76